Butternut, Wisconsin
Current Conditions -  °F | °C
As of 4:35 PM on Monday 22 Dec 2014 (Local Time) from KPBH Reporting Station
Haze Haze  
Wind Chill: 27°   Ceiling: 900
Heat Index: 33°   Visibility: 5mi
Dew Point: 32°   Wind: 7mph
Humidity: 94%   Direction: 120°ESE
Pressure: 29.7"   Gusts: NA
Location:  46.01°N, 90.49°W
Report Text: KPBH 222235Z AUTO 12006KT 5SM BR OVC009 01/00 A2970 RMK AO2 T00061002
Loading
Personal Weather Stations






























Interactive Weather Map New forecast layout! Learn more

10-Day Weather Forecast

Advertisements
Track Severe Weather on mobile